sensor_id;sensor_type;location;lat;lon;timestamp;pressure;altitude;pressure_sealevel;temperature;humidity
7109;BME280;29079;41.930;25.558;2023-03-20T00:02:31;100092.84;;;5.74;82.75
7109;BME280;29079;41.930;25.558;2023-03-20T00:05:13;100090.56;;;5.68;82.87
7109;BME280;29079;41.930;25.558;2023-03-20T00:07:47;100093.78;;;5.73;83.04
7109;BME280;29079;41.930;25.558;2023-03-20T00:10:20;100086.50;;;5.63;82.94
7109;BME280;29079;41.930;25.558;2023-03-20T00:12:55;100086.31;;;5.66;81.94
7109;BME280;29079;41.930;25.558;2023-03-20T00:15:29;100088.97;;;5.66;81.77
7109;BME280;29079;41.930;25.558;2023-03-20T00:18:05;100078.50;;;5.48;82.56
7109;BME280;29079;41.930;25.558;2023-03-20T00:20:45;100083.44;;;5.54;82.46
7109;BME280;29079;41.930;25.558;2023-03-20T00:23:18;100079.47;;;5.62;82.06
7109;BME280;29079;41.930;25.558;2023-03-20T00:25:52;100068.38;;;5.40;83.19
7109;BME280;29079;41.930;25.558;2023-03-20T00:28:28;100074.38;;;5.58;81.81
7109;BME280;29079;41.930;25.558;2023-03-20T00:31:04;100069.41;;;5.38;82.12
7109;BME280;29079;41.930;25.558;2023-03-20T00:33:37;100064.63;;;5.45;81.93
7109;BME280;29079;41.930;25.558;2023-03-20T00:36:11;100068.94;;;5.46;81.95
7109;BME280;29079;41.930;25.558;2023-03-20T00:38:44;100060.91;;;5.47;82.60
7109;BME280;29079;41.930;25.558;2023-03-20T00:41:21;100056.00;;;5.41;82.17
7109;BME280;29079;41.930;25.558;2023-03-20T00:43:56;100051.53;;;5.41;81.76
7109;BME280;29079;41.930;25.558;2023-03-20T00:46:32;100051.53;;;5.27;81.17
7109;BME280;29079;41.930;25.558;2023-03-20T00:49:08;100063.03;;;5.26;81.24
7109;BME280;29079;41.930;25.558;2023-03-20T00:51:43;100055.63;;;5.17;81.46
7109;BME280;29079;41.930;25.558;2023-03-20T00:54:16;100060.75;;;5.20;81.16
7109;BME280;29079;41.930;25.558;2023-03-20T00:56:51;100048.75;;;4.98;81.32
7109;BME280;29079;41.930;25.558;2023-03-20T00:59:27;100051.34;;;4.84;82.17
7109;BME280;29079;41.930;25.558;2023-03-20T01:02:02;100047.75;;;4.85;81.54
7109;BME280;29079;41.930;25.558;2023-03-20T01:04:36;100046.56;;;4.75;82.02
7109;BME280;29079;41.930;25.558;2023-03-20T01:07:11;100042.81;;;4.79;81.67
7109;BME280;29079;41.930;25.558;2023-03-20T01:09:46;100037.78;;;4.74;81.65
7109;BME280;29079;41.930;25.558;2023-03-20T01:12:19;100040.44;;;4.58;82.39
7109;BME280;29079;41.930;25.558;2023-03-20T01:14:54;100035.22;;;4.57;82.62
7109;BME280;29079;41.930;25.558;2023-03-20T01:17:28;100042.63;;;4.50;82.40
7109;BME280;29079;41.930;25.558;2023-03-20T01:20:01;100039.69;;;4.56;82.59
7109;BME280;29079;41.930;25.558;2023-03-20T01:22:36;100034.72;;;4.66;81.12
7109;BME280;29079;41.930;25.558;2023-03-20T01:25:09;100027.22;;;4.42;82.65
7109;BME280;29079;41.930;25.558;2023-03-20T01:27:43;100030.78;;;4.57;82.26
7109;BME280;29079;41.930;25.558;2023-03-20T01:30:20;100025.00;;;4.66;81.27
7109;BME280;29079;41.930;25.558;2023-03-20T01:32:54;100023.53;;;4.77;80.58
7109;BME280;29079;41.930;25.558;2023-03-20T01:35:27;100028.50;;;4.67;80.53
7109;BME280;29079;41.930;25.558;2023-03-20T01:38:02;100028.84;;;4.61;80.90
7109;BME280;29079;41.930;25.558;2023-03-20T01:40:39;100029.78;;;4.60;80.86
7109;BME280;29079;41.930;25.558;2023-03-20T01:43:16;100022.78;;;4.59;80.34
7109;BME280;29079;41.930;25.558;2023-03-20T01:45:57;100031.31;;;4.48;81.39
7109;BME280;29079;41.930;25.558;2023-03-20T01:48:53;100030.78;;;4.25;81.50
7109;BME280;29079;41.930;25.558;2023-03-20T01:51:28;100031.81;;;4.23;81.14
7109;BME280;29079;41.930;25.558;2023-03-20T01:54:06;100030.84;;;4.24;81.26
7109;BME280;29079;41.930;25.558;2023-03-20T01:56:42;100024.72;;;4.23;81.09
7109;BME280;29079;41.930;25.558;2023-03-20T01:59:16;100032.22;;;4.15;81.85
7109;BME280;29079;41.930;25.558;2023-03-20T02:01:51;100028.66;;;4.16;81.51
7109;BME280;29079;41.930;25.558;2023-03-20T02:04:26;100023.72;;;4.26;81.32
7109;BME280;29079;41.930;25.558;2023-03-20T02:07:01;100030.19;;;4.20;81.68
7109;BME280;29079;41.930;25.558;2023-03-20T02:09:39;100027.69;;;4.01;82.90
7109;BME280;29079;41.930;25.558;2023-03-20T02:12:12;100025.53;;;3.92;82.85
7109;BME280;29079;41.930;25.558;2023-03-20T02:14:46;100024.84;;;3.88;83.26
7109;BME280;29079;41.930;25.558;2023-03-20T02:17:20;100033.28;;;3.95;82.94
7109;BME280;29079;41.930;25.558;2023-03-20T02:19:56;100026.91;;;3.99;83.06
7109;BME280;29079;41.930;25.558;2023-03-20T02:25:50;100020.91;;;3.79;83.48
7109;BME280;29079;41.930;25.558;2023-03-20T02:31:26;100013.47;;;3.70;84.26
7109;BME280;29079;41.930;25.558;2023-03-20T02:34:09;100014.38;;;3.87;83.69
7109;BME280;29079;41.930;25.558;2023-03-20T02:37:14;100010.75;;;3.54;85.09
7109;BME280;29079;41.930;25.558;2023-03-20T02:39:55;100006.72;;;3.64;84.79
7109;BME280;29079;41.930;25.558;2023-03-20T02:42:33;100012.22;;;3.60;84.74
7109;BME280;29079;41.930;25.558;2023-03-20T02:45:13;100003.25;;;3.46;85.29
7109;BME280;29079;41.930;25.558;2023-03-20T02:47:48;100004.09;;;3.47;85.76
7109;BME280;29079;41.930;25.558;2023-03-20T02:50:24;100007.84;;;3.43;85.30
7109;BME280;29079;41.930;25.558;2023-03-20T02:53:02;99997.66;;;3.35;85.42
7109;BME280;29079;41.930;25.558;2023-03-20T02:55:43;100001.47;;;3.47;84.81
7109;BME280;29079;41.930;25.558;2023-03-20T02:58:19;100008.31;;;3.34;85.45
7109;BME280;29079;41.930;25.558;2023-03-20T03:00:55;100008.16;;;3.37;85.21
7109;BME280;29079;41.930;25.558;2023-03-20T03:03:30;100003.19;;;3.30;85.49
7109;BME280;29079;41.930;25.558;2023-03-20T03:06:05;100000.78;;;3.43;84.64
7109;BME280;29079;41.930;25.558;2023-03-20T03:08:42;100003.91;;;3.34;85.17
7109;BME280;29079;41.930;25.558;2023-03-20T03:11:16;100003.91;;;3.34;85.58
7109;BME280;29079;41.930;25.558;2023-03-20T03:13:50;100001.31;;;3.15;86.36
7109;BME280;29079;41.930;25.558;2023-03-20T03:16:25;100006.75;;;3.29;86.21
7109;BME280;29079;41.930;25.558;2023-03-20T03:19:02;100007.06;;;3.23;85.98
7109;BME280;29079;41.930;25.558;2023-03-20T03:21:37;100003.19;;;3.13;86.51
7109;BME280;29079;41.930;25.558;2023-03-20T03:24:20;100001.34;;;3.33;85.70
7109;BME280;29079;41.930;25.558;2023-03-20T03:27:12;99998.38;;;3.39;85.77
7109;BME280;29079;41.930;25.558;2023-03-20T03:29:49;100001.69;;;3.42;86.02
7109;BME280;29079;41.930;25.558;2023-03-20T03:32:26;99997.72;;;3.51;85.48
7109;BME280;29079;41.930;25.558;2023-03-20T03:35:00;99996.97;;;3.49;85.25
7109;BME280;29079;41.930;25.558;2023-03-20T03:37:38;99993.53;;;3.47;85.29
7109;BME280;29079;41.930;25.558;2023-03-20T03:40:17;99996.66;;;3.55;85.05
7109;BME280;29079;41.930;25.558;2023-03-20T03:42:52;99998.44;;;3.55;85.16
7109;BME280;29079;41.930;25.558;2023-03-20T03:45:29;100006.28;;;3.56;84.99
7109;BME280;29079;41.930;25.558;2023-03-20T03:48:05;100004.47;;;3.57;84.77
7109;BME280;29079;41.930;25.558;2023-03-20T03:50:40;100002.00;;;3.54;85.44
7109;BME280;29079;41.930;25.558;2023-03-20T03:53:19;100002.50;;;3.78;84.20
7109;BME280;29079;41.930;25.558;2023-03-20T03:55:58;100006.41;;;3.71;84.57
7109;BME280;29079;41.930;25.558;2023-03-20T03:58:33;100001.66;;;3.93;90.15
7109;BME280;29079;41.930;25.558;2023-03-20T04:01:09;100005.97;;;4.12;92.11
7109;BME280;29079;41.930;25.558;2023-03-20T04:03:45;100003.50;;;4.09;94.83
7109;BME280;29079;41.930;25.558;2023-03-20T04:06:19;100001.31;;;4.17;95.24
7109;BME280;29079;41.930;25.558;2023-03-20T04:08:52;100010.72;;;4.21;95.69
7109;BME280;29079;41.930;25.558;2023-03-20T04:11:26;100006.13;;;4.09;96.80
7109;BME280;29079;41.930;25.558;2023-03-20T04:14:01;100012.25;;;4.09;97.05
7109;BME280;29079;41.930;25.558;2023-03-20T04:16:34;100009.81;;;4.22;96.15
7109;BME280;29079;41.930;25.558;2023-03-20T04:19:07;100011.94;;;4.15;96.30
7109;BME280;29079;41.930;25.558;2023-03-20T04:21:40;100002.88;;;4.04;96.48
7109;BME280;29079;41.930;25.558;2023-03-20T04:24:13;100012.06;;;3.96;96.90
7109;BME280;29079;41.930;25.558;2023-03-20T04:26:48;100016.59;;;3.94;97.07
7109;BME280;29079;41.930;25.558;2023-03-20T04:29:21;100014.88;;;3.93;96.98
7109;BME280;29079;41.930;25.558;2023-03-20T04:31:55;100015.16;;;4.05;96.34
7109;BME280;29079;41.930;25.558;2023-03-20T04:34:28;100006.69;;;3.82;97.45
7109;BME280;29079;41.930;25.558;2023-03-20T04:37:01;100008.53;;;4.13;95.56
7109;BME280;29079;41.930;25.558;2023-03-20T04:39:36;100012.19;;;4.11;95.40
7109;BME280;29079;41.930;25.558;2023-03-20T04:42:10;100011.34;;;4.10;94.65
7109;BME280;29079;41.930;25.558;2023-03-20T04:44:43;100022.50;;;3.99;94.57
7109;BME280;29079;41.930;25.558;2023-03-20T04:47:24;100017.72;;;4.06;94.25
7109;BME280;29079;41.930;25.558;2023-03-20T04:49:57;100015.59;;;3.97;94.05
7109;BME280;29079;41.930;25.558;2023-03-20T04:52:30;100015.97;;;3.89;93.94
7109;BME280;29079;41.930;25.558;2023-03-20T04:55:03;100018.59;;;3.89;94.06
7109;BME280;29079;41.930;25.558;2023-03-20T04:57:39;100014.72;;;3.96;93.96
7109;BME280;29079;41.930;25.558;2023-03-20T05:00:12;100026.53;;;3.89;94.15
7109;BME280;29079;41.930;25.558;2023-03-20T05:02:45;100024.38;;;3.80;94.46
7109;BME280;29079;41.930;25.558;2023-03-20T05:05:18;100023.84;;;3.91;94.03
7109;BME280;29079;41.930;25.558;2023-03-20T05:07:51;100017.00;;;3.87;94.12
7109;BME280;29079;41.930;25.558;2023-03-20T05:10:25;100021.38;;;3.70;94.88
7109;BME280;29079;41.930;25.558;2023-03-20T05:13:01;100036.16;;;3.39;96.50
7109;BME280;29079;41.930;25.558;2023-03-20T05:15:35;100036.78;;;3.62;96.51
7109;BME280;29079;41.930;25.558;2023-03-20T05:18:08;100035.97;;;3.77;95.69
7109;BME280;29079;41.930;25.558;2023-03-20T05:20:41;100040.09;;;3.65;95.83
7109;BME280;29079;41.930;25.558;2023-03-20T05:23:14;100045.50;;;3.80;95.83
7109;BME280;29079;41.930;25.558;2023-03-20T05:25:49;100039.63;;;3.75;96.04
7109;BME280;29079;41.930;25.558;2023-03-20T05:28:24;100044.41;;;3.84;95.66
7109;BME280;29079;41.930;25.558;2023-03-20T05:30:57;100036.59;;;3.82;96.14
7109;BME280;29079;41.930;25.558;2023-03-20T05:33:30;100038.25;;;4.01;95.29
7109;BME280;29079;41.930;25.558;2023-03-20T05:36:03;100035.53;;;4.03;95.12
7109;BME280;29079;41.930;25.558;2023-03-20T05:38:37;100033.16;;;3.98;95.13
7109;BME280;29079;41.930;25.558;2023-03-20T05:41:10;100030.56;;;3.96;95.18
7109;BME280;29079;41.930;25.558;2023-03-20T05:43:44;100037.13;;;4.39;93.61
7109;BME280;29079;41.930;25.558;2023-03-20T05:46:17;100029.50;;;4.48;92.46
7109;BME280;29079;41.930;25.558;2023-03-20T05:48:51;100030.38;;;4.49;91.57
7109;BME280;29079;41.930;25.558;2023-03-20T05:51:24;100034.41;;;4.56;91.45
7109;BME280;29079;41.930;25.558;2023-03-20T05:53:58;100032.50;;;4.58;91.67
7109;BME280;29079;41.930;25.558;2023-03-20T05:56:31;100025.94;;;4.49;91.92
7109;BME280;29079;41.930;25.558;2023-03-20T05:59:06;100023.22;;;4.51;92.39
7109;BME280;29079;41.930;25.558;2023-03-20T06:01:40;100025.94;;;4.65;91.83
7109;BME280;29079;41.930;25.558;2023-03-20T06:04:13;100020.91;;;4.77;91.19
7109;BME280;29079;41.930;25.558;2023-03-20T06:06:45;100030.44;;;4.79;91.45
7109;BME280;29079;41.930;25.558;2023-03-20T06:09:19;100025.72;;;5.00;90.09
7109;BME280;29079;41.930;25.558;2023-03-20T06:11:52;100025.50;;;5.19;89.33
7109;BME280;29079;41.930;25.558;2023-03-20T06:14:27;100027.72;;;5.27;89.09
7109;BME280;29079;41.930;25.558;2023-03-20T06:17:00;100030.91;;;5.32;88.36
7109;BME280;29079;41.930;25.558;2023-03-20T06:19:33;100025.59;;;5.63;87.88
7109;BME280;29079;41.930;25.558;2023-03-20T06:22:07;100028.34;;;5.61;88.16
7109;BME280;29079;41.930;25.558;2023-03-20T06:24:40;100023.44;;;5.69;87.43
7109;BME280;29079;41.930;25.558;2023-03-20T06:27:13;100026.84;;;5.86;86.71
7109;BME280;29079;41.930;25.558;2023-03-20T06:29:49;100023.81;;;5.92;86.25
7109;BME280;29079;41.930;25.558;2023-03-20T06:32:22;100025.59;;;5.77;86.98
7109;BME280;29079;41.930;25.558;2023-03-20T06:34:55;100027.59;;;5.88;86.45
7109;BME280;29079;41.930;25.558;2023-03-20T06:37:28;100028.06;;;5.95;87.34
7109;BME280;29079;41.930;25.558;2023-03-20T06:40:01;100029.31;;;5.89;87.75
7109;BME280;29079;41.930;25.558;2023-03-20T06:42:34;100034.72;;;6.02;88.88
7109;BME280;29079;41.930;25.558;2023-03-20T06:45:10;100035.47;;;6.04;89.96
7109;BME280;29079;41.930;25.558;2023-03-20T06:47:43;100038.41;;;5.99;90.28
7109;BME280;29079;41.930;25.558;2023-03-20T06:50:17;100044.84;;;6.09;89.95
7109;BME280;29079;41.930;25.558;2023-03-20T06:52:50;100036.44;;;6.03;90.64
7109;BME280;29079;41.930;25.558;2023-03-20T06:55:24;100030.56;;;6.12;90.45
7109;BME280;29079;41.930;25.558;2023-03-20T06:57:57;100029.78;;;6.24;89.66
7109;BME280;29079;41.930;25.558;2023-03-20T07:00:33;100029.22;;;6.19;90.25
7109;BME280;29079;41.930;25.558;2023-03-20T07:03:06;100035.16;;;6.37;90.39
7109;BME280;29079;41.930;25.558;2023-03-20T07:05:39;100036.69;;;6.41;90.45
7109;BME280;29079;41.930;25.558;2023-03-20T07:08:12;100030.81;;;6.51;90.42
7109;BME280;29079;41.930;25.558;2023-03-20T07:10:45;100030.03;;;6.49;90.90
7109;BME280;29079;41.930;25.558;2023-03-20T07:13:19;100026.44;;;6.50;91.04
7109;BME280;29079;41.930;25.558;2023-03-20T07:16:01;100025.00;;;6.58;91.36
7109;BME280;29079;41.930;25.558;2023-03-20T07:18:36;100021.84;;;6.66;91.48
7109;BME280;29079;41.930;25.558;2023-03-20T07:21:09;100020.50;;;6.73;91.58
7109;BME280;29079;41.930;25.558;2023-03-20T07:23:42;100017.06;;;6.86;90.92
7109;BME280;29079;41.930;25.558;2023-03-20T07:26:16;100019.09;;;6.68;91.52
7109;BME280;29079;41.930;25.558;2023-03-20T07:28:49;100018.63;;;6.88;91.18
7109;BME280;29079;41.930;25.558;2023-03-20T07:31:24;100019.56;;;7.02;90.28
7109;BME280;29079;41.930;25.558;2023-03-20T07:33:59;100015.34;;;7.12;89.34
7109;BME280;29079;41.930;25.558;2023-03-20T07:36:32;100006.31;;;7.27;88.70
7109;BME280;29079;41.930;25.558;2023-03-20T07:39:05;100002.09;;;7.25;88.00
7109;BME280;29079;41.930;25.558;2023-03-20T07:41:39;100004.44;;;7.42;87.72
7109;BME280;29079;41.930;25.558;2023-03-20T07:44:20;100000.53;;;7.48;86.66
7109;BME280;29079;41.930;25.558;2023-03-20T07:46:54;100001.78;;;7.68;86.68
7109;BME280;29079;41.930;25.558;2023-03-20T07:49:27;99994.25;;;8.37;84.57
7109;BME280;29079;41.930;25.558;2023-03-20T07:52:00;99990.75;;;8.74;82.39
7109;BME280;29079;41.930;25.558;2023-03-20T07:54:33;99987.00;;;9.01;80.59
7109;BME280;29079;41.930;25.558;2023-03-20T07:57:07;99987.78;;;9.50;78.77
7109;BME280;29079;41.930;25.558;2023-03-20T07:59:40;99988.88;;;9.70;77.32
7109;BME280;29079;41.930;25.558;2023-03-20T08:02:15;99992.66;;;10.01;76.23
7109;BME280;29079;41.930;25.558;2023-03-20T08:04:48;99984.91;;;10.09;75.00
7109;BME280;29079;41.930;25.558;2023-03-20T08:07:21;99990.22;;;9.87;75.48
7109;BME280;29079;41.930;25.558;2023-03-20T08:09:55;99989.53;;;9.38;76.36
7109;BME280;29079;41.930;25.558;2023-03-20T08:12:29;99985.00;;;9.74;76.37
7109;BME280;29079;41.930;25.558;2023-03-20T08:15:03;99976.16;;;9.62;76.02
7109;BME280;29079;41.930;25.558;2023-03-20T08:17:37;99983.28;;;9.73;75.64
7109;BME280;29079;41.930;25.558;2023-03-20T08:20:13;99981.25;;;9.76;75.38
7109;BME280;29079;41.930;25.558;2023-03-20T08:22:47;99981.75;;;9.82;74.81
7109;BME280;29079;41.930;25.558;2023-03-20T08:25:21;99980.41;;;9.87;75.22
7109;BME280;29079;41.930;25.558;2023-03-20T08:27:54;99981.63;;;9.83;74.58
7109;BME280;29079;41.930;25.558;2023-03-20T08:30:27;99988.38;;;9.87;75.01
7109;BME280;29079;41.930;25.558;2023-03-20T08:33:01;99987.31;;;9.90;76.00
7109;BME280;29079;41.930;25.558;2023-03-20T08:35:34;99981.63;;;9.72;76.86
7109;BME280;29079;41.930;25.558;2023-03-20T08:38:08;99988.50;;;9.63;76.91
7109;BME280;29079;41.930;25.558;2023-03-20T08:40:43;99988.03;;;9.69;76.86
7109;BME280;29079;41.930;25.558;2023-03-20T08:43:16;99984.28;;;9.83;76.86
7109;BME280;29079;41.930;25.558;2023-03-20T08:45:51;99992.03;;;10.09;76.06
7109;BME280;29079;41.930;25.558;2023-03-20T08:48:25;99983.66;;;10.25;74.25
7109;BME280;29079;41.930;25.558;2023-03-20T08:50:58;99972.59;;;10.29;73.88
7109;BME280;29079;41.930;25.558;2023-03-20T08:53:32;99972.28;;;10.23;73.46
7109;BME280;29079;41.930;25.558;2023-03-20T08:56:05;99971.66;;;10.42;72.48
7109;BME280;29079;41.930;25.558;2023-03-20T08:58:39;99976.09;;;10.53;72.45
7109;BME280;29079;41.930;25.558;2023-03-20T09:01:12;99963.50;;;10.55;71.11
7109;BME280;29079;41.930;25.558;2023-03-20T09:03:47;99967.50;;;10.60;69.88
7109;BME280;29079;41.930;25.558;2023-03-20T09:06:21;99960.81;;;10.66;68.51
7109;BME280;29079;41.930;25.558;2023-03-20T09:08:54;99960.66;;;10.79;67.88
7109;BME280;29079;41.930;25.558;2023-03-20T09:11:28;99964.25;;;10.89;67.68
7109;BME280;29079;41.930;25.558;2023-03-20T09:14:01;99957.47;;;11.06;66.58
7109;BME280;29079;41.930;25.558;2023-03-20T09:16:35;99954.75;;;11.18;66.56
7109;BME280;29079;41.930;25.558;2023-03-20T09:19:10;99957.91;;;11.23;65.58
7109;BME280;29079;41.930;25.558;2023-03-20T09:21:43;99956.41;;;11.30;65.27
7109;BME280;29079;41.930;25.558;2023-03-20T09:24:16;99950.31;;;11.28;65.19
7109;BME280;29079;41.930;25.558;2023-03-20T09:26:49;99950.59;;;11.46;64.66
7109;BME280;29079;41.930;25.558;2023-03-20T09:29:22;99946.47;;;11.42;65.13
7109;BME280;29079;41.930;25.558;2023-03-20T09:31:55;99950.06;;;11.52;64.86
7109;BME280;29079;41.930;25.558;2023-03-20T09:34:30;99946.91;;;11.47;64.95
7109;BME280;29079;41.930;25.558;2023-03-20T09:37:04;99938.47;;;11.42;65.51
7109;BME280;29079;41.930;25.558;2023-03-20T09:39:37;99938.75;;;11.48;65.23
7109;BME280;29079;41.930;25.558;2023-03-20T09:42:16;99942.31;;;11.49;65.42
7109;BME280;29079;41.930;25.558;2023-03-20T09:44:53;99941.50;;;11.58;64.49
7109;BME280;29079;41.930;25.558;2023-03-20T09:47:31;99930.13;;;11.66;65.01
7109;BME280;29079;41.930;25.558;2023-03-20T09:50:11;99929.88;;;11.69;64.34
7109;BME280;29079;41.930;25.558;2023-03-20T09:52:57;99925.25;;;11.71;64.84
7109;BME280;29079;41.930;25.558;2023-03-20T09:55:33;99921.47;;;11.74;64.54
7109;BME280;29079;41.930;25.558;2023-03-20T09:58:11;99926.03;;;11.93;63.96
7109;BME280;29079;41.930;25.558;2023-03-20T10:00:44;99921.88;;;12.00;63.60
7109;BME280;29079;41.930;25.558;2023-03-20T10:03:19;99915.41;;;12.02;63.84
7109;BME280;29079;41.930;25.558;2023-03-20T10:05:56;99910.78;;;12.14;63.01
7109;BME280;29079;41.930;25.558;2023-03-20T10:08:32;99910.66;;;12.16;63.14
7109;BME280;29079;41.930;25.558;2023-03-20T10:11:09;99911.69;;;12.34;62.21
7109;BME280;29079;41.930;25.558;2023-03-20T10:14:02;99901.50;;;12.28;63.21
7109;BME280;29079;41.930;25.558;2023-03-20T10:16:41;99900.84;;;12.56;61.45
7109;BME280;29079;41.930;25.558;2023-03-20T10:19:20;99895.78;;;12.62;61.07
7109;BME280;29079;41.930;25.558;2023-03-20T10:21:59;99897.16;;;12.47;62.58
7109;BME280;29079;41.930;25.558;2023-03-20T10:24:35;99887.31;;;12.77;60.50
7109;BME280;29079;41.930;25.558;2023-03-20T10:27:13;99877.72;;;12.64;60.82
7109;BME280;29079;41.930;25.558;2023-03-20T10:29:51;99874.63;;;12.79;60.21
7109;BME280;29079;41.930;25.558;2023-03-20T10:32:27;99867.72;;;12.86;60.36
7109;BME280;29079;41.930;25.558;2023-03-20T10:35:06;99867.84;;;12.84;60.74
7109;BME280;29079;41.930;25.558;2023-03-20T10:37:49;99862.78;;;12.81;61.24
7109;BME280;29079;41.930;25.558;2023-03-20T10:40:25;99858.28;;;12.82;61.85
7109;BME280;29079;41.930;25.558;2023-03-20T10:43:00;99847.41;;;13.03;61.00
7109;BME280;29079;41.930;25.558;2023-03-20T10:45:36;99853.09;;;13.28;60.27
7109;BME280;29079;41.930;25.558;2023-03-20T10:48:13;99842.00;;;13.13;60.49
7109;BME280;29079;41.930;25.558;2023-03-20T10:50:49;99774.66;;;12.88;60.27
7109;BME280;29079;41.930;25.558;2023-03-20T10:53:27;99838.28;;;13.33;59.44
7109;BME280;29079;41.930;25.558;2023-03-20T10:56:03;99829.56;;;13.21;59.46
7109;BME280;29079;41.930;25.558;2023-03-20T10:58:38;99832.13;;;13.23;60.17
7109;BME280;29079;41.930;25.558;2023-03-20T11:01:13;99839.56;;;13.29;59.67
7109;BME280;29079;41.930;25.558;2023-03-20T11:03:46;99832.06;;;13.43;59.01
7109;BME280;29079;41.930;25.558;2023-03-20T11:06:21;99831.94;;;13.34;58.50
7109;BME280;29079;41.930;25.558;2023-03-20T11:08:56;99829.00;;;13.28;59.31
7109;BME280;29079;41.930;25.558;2023-03-20T11:11:40;99817.56;;;13.35;59.70
7109;BME280;29079;41.930;25.558;2023-03-20T11:14:18;99808.63;;;13.45;58.39
7109;BME280;29079;41.930;25.558;2023-03-20T11:16:52;99806.34;;;13.50;58.13
7109;BME280;29079;41.930;25.558;2023-03-20T11:19:26;99809.94;;;13.68;57.64
7109;BME280;29079;41.930;25.558;2023-03-20T11:22:01;99803.81;;;13.76;56.95
7109;BME280;29079;41.930;25.558;2023-03-20T11:24:43;99793.44;;;13.63;58.49
7109;BME280;29079;41.930;25.558;2023-03-20T11:27:24;99794.41;;;13.62;58.83
7109;BME280;29079;41.930;25.558;2023-03-20T11:29:59;99784.78;;;13.97;56.97
7109;BME280;29079;41.930;25.558;2023-03-20T11:32:34;99784.38;;;13.92;57.71
7109;BME280;29079;41.930;25.558;2023-03-20T11:35:09;99781.78;;;14.00;56.98
7109;BME280;29079;41.930;25.558;2023-03-20T11:37:43;99768.41;;;13.90;57.07
7109;BME280;29079;41.930;25.558;2023-03-20T11:40:21;99768.66;;;13.97;57.08
7109;BME280;29079;41.930;25.558;2023-03-20T11:42:55;99768.50;;;13.99;57.05
7109;BME280;29079;41.930;25.558;2023-03-20T11:45:31;99758.81;;;13.70;58.76
7109;BME280;29079;41.930;25.558;2023-03-20T11:48:06;99752.63;;;13.87;56.61
7109;BME280;29079;41.930;25.558;2023-03-20T11:50:47;99748.97;;;14.06;55.27
7109;BME280;29079;41.930;25.558;2023-03-20T11:53:23;99738.81;;;14.18;54.62
7109;BME280;29079;41.930;25.558;2023-03-20T11:56:06;99727.22;;;14.36;54.66
7109;BME280;29079;41.930;25.558;2023-03-20T11:58:46;99730.06;;;14.34;55.55
7109;BME280;29079;41.930;25.558;2023-03-20T12:01:21;99729.03;;;14.53;54.95
7109;BME280;29079;41.930;25.558;2023-03-20T12:03:58;99724.81;;;14.69;53.55
7109;BME280;29079;41.930;25.558;2023-03-20T12:06:38;99713.78;;;14.54;54.35
7109;BME280;29079;41.930;25.558;2023-03-20T12:09:17;99712.25;;;14.51;53.79
7109;BME280;29079;41.930;25.558;2023-03-20T12:11:59;99707.47;;;14.63;52.85
7109;BME280;29079;41.930;25.558;2023-03-20T12:14:36;99708.59;;;14.60;53.56
7109;BME280;29079;41.930;25.558;2023-03-20T12:20:09;99698.78;;;14.69;55.02
7109;BME280;29079;41.930;25.558;2023-03-20T12:22:47;99693.97;;;14.55;55.70
7109;BME280;29079;41.930;25.558;2023-03-20T12:25:22;99693.13;;;14.54;54.58
7109;BME280;29079;41.930;25.558;2023-03-20T12:28:00;99687.78;;;14.80;52.88
7109;BME280;29079;41.930;25.558;2023-03-20T12:30:41;99682.00;;;14.67;53.73
7109;BME280;29079;41.930;25.558;2023-03-20T12:33:19;99691.78;;;14.76;54.14
7109;BME280;29079;41.930;25.558;2023-03-20T12:35:54;99687.13;;;14.60;55.09
7109;BME280;29079;41.930;25.558;2023-03-20T12:38:30;99680.19;;;14.50;55.61
7109;BME280;29079;41.930;25.558;2023-03-20T12:41:06;99674.66;;;14.51;55.69
7109;BME280;29079;41.930;25.558;2023-03-20T12:43:59;99678.91;;;14.36;56.99
7109;BME280;29079;41.930;25.558;2023-03-20T12:46:38;99668.72;;;14.39;56.46
7109;BME280;29079;41.930;25.558;2023-03-20T12:49:18;99665.94;;;14.57;54.97
7109;BME280;29079;41.930;25.558;2023-03-20T12:51:57;99665.28;;;14.82;53.14
7109;BME280;29079;41.930;25.558;2023-03-20T12:54:46;99672.41;;;14.99;52.19
7109;BME280;29079;41.930;25.558;2023-03-20T12:57:22;99659.72;;;15.26;50.52
7109;BME280;29079;41.930;25.558;2023-03-20T13:00:13;99659.66;;;15.01;52.00
7109;BME280;29079;41.930;25.558;2023-03-20T13:02:54;99665.72;;;15.03;50.86
7109;BME280;29079;41.930;25.558;2023-03-20T13:05:33;99663.09;;;14.85;51.80
7109;BME280;29079;41.930;25.558;2023-03-20T13:08:11;99660.50;;;15.02;50.43
7109;BME280;29079;41.930;25.558;2023-03-20T13:10:49;99654.47;;;15.08;50.13
7109;BME280;29079;41.930;25.558;2023-03-20T13:13:28;99653.59;;;14.99;50.84
7109;BME280;29079;41.930;25.558;2023-03-20T13:16:08;99644.94;;;15.22;50.51
7109;BME280;29079;41.930;25.558;2023-03-20T13:18:47;99644.88;;;15.05;50.14
7109;BME280;29079;41.930;25.558;2023-03-20T13:21:23;99645.63;;;15.32;48.20
7109;BME280;29079;41.930;25.558;2023-03-20T13:24:02;99646.97;;;15.20;48.39
7109;BME280;29079;41.930;25.558;2023-03-20T13:26:44;99646.97;;;15.20;49.72
7109;BME280;29079;41.930;25.558;2023-03-20T13:29:22;99644.84;;;14.97;52.25
7109;BME280;29079;41.930;25.558;2023-03-20T13:32:04;99642.16;;;14.97;51.99
7109;BME280;29079;41.930;25.558;2023-03-20T13:34:44;99638.59;;;14.80;53.09
7109;BME280;29079;41.930;25.558;2023-03-20T13:37:26;99640.94;;;14.83;54.04
7109;BME280;29079;41.930;25.558;2023-03-20T13:40:05;99629.31;;;14.74;54.94
7109;BME280;29079;41.930;25.558;2023-03-20T13:42:41;99628.16;;;14.77;52.97
7109;BME280;29079;41.930;25.558;2023-03-20T13:45:23;99622.34;;;14.98;49.65
7109;BME280;29079;41.930;25.558;2023-03-20T13:48:04;99625.09;;;15.14;49.90
7109;BME280;29079;41.930;25.558;2023-03-20T13:50:45;99622.44;;;15.23;50.82
7109;BME280;29079;41.930;25.558;2023-03-20T13:53:23;99622.78;;;15.28;48.22
7109;BME280;29079;41.930;25.558;2023-03-20T13:55:59;99621.56;;;15.14;49.96